createdAt,value
2023-01-09T07:04:59.416Z,100.00
2023-01-09T07:06:03.041Z,100.00
2023-01-09T07:07:06.429Z,100.00
2023-01-09T07:08:09.307Z,100.00
2023-01-09T07:09:14.243Z,100.00
2023-01-09T07:10:17.775Z,100.00
2023-01-09T07:11:21.023Z,100.00
2023-01-09T07:12:25.403Z,100.00
2023-01-09T07:13:28.522Z,100.00
2023-01-09T07:14:31.321Z,100.00
2023-01-09T07:15:34.801Z,100.00
2023-01-09T07:16:38.273Z,100.00
2023-01-09T07:17:41.493Z,100.00
2023-01-09T07:18:44.770Z,100.00
2023-01-09T07:19:48.164Z,100.00
2023-01-09T07:20:50.753Z,100.00
2023-01-09T07:21:54.010Z,100.00
2023-01-09T07:24:21.832Z,100.00
2023-01-09T07:25:26.822Z,100.00
2023-01-09T07:26:30.425Z,100.00
2023-01-09T07:27:33.718Z,100.00
2023-01-09T07:28:37.089Z,100.00
2023-01-09T07:29:41.444Z,100.00
2023-01-09T07:30:43.895Z,100.00
2023-01-09T07:31:47.937Z,100.00
2023-01-09T07:32:51.652Z,100.00
2023-01-09T07:33:54.798Z,100.00
2023-01-09T07:34:59.177Z,100.00
2023-01-09T07:36:02.866Z,100.00
2023-01-09T07:37:06.384Z,100.00
2023-01-09T07:38:08.899Z,100.00
2023-01-09T07:39:12.467Z,100.00
2023-01-09T07:40:16.283Z,100.00
2023-01-09T07:41:21.485Z,100.00
2023-01-09T07:42:25.832Z,100.00
2023-01-09T07:43:28.263Z,100.00
2023-01-09T07:44:32.700Z,100.00
2023-01-09T07:45:35.728Z,100.00
2023-01-09T07:46:39.137Z,100.00
2023-01-09T07:47:44.455Z,100.00
2023-01-09T07:48:47.525Z,100.00
2023-01-09T07:49:50.895Z,100.00
2023-01-09T07:50:59.585Z,100.00
2023-01-09T07:52:06.217Z,100.00
2023-01-09T07:53:09.546Z,100.00
2023-01-09T07:54:15.640Z,100.00
2023-01-09T07:55:17.994Z,100.00
2023-01-09T07:56:21.618Z,100.00
2023-01-09T07:57:25.106Z,100.00
2023-01-09T07:58:28.183Z,100.00
2023-01-09T07:59:32.644Z,100.00
2023-01-09T08:00:35.315Z,100.00
2023-01-09T08:01:40.163Z,100.00
2023-01-09T08:02:43.359Z,100.00
2023-01-09T08:03:46.974Z,100.00
2023-01-09T08:04:50.367Z,100.00
2023-01-09T08:05:54.192Z,100.00
2023-01-09T08:06:57.847Z,100.00
2023-01-09T08:08:02.451Z,100.00
2023-01-09T08:09:05.862Z,100.00
2023-01-09T08:10:11.282Z,100.00
2023-01-09T08:11:17.002Z,100.00
2023-01-09T08:12:20.446Z,100.00
2023-01-09T08:13:22.695Z,100.00
2023-01-09T08:14:28.013Z,100.00
2023-01-09T08:15:30.388Z,100.00
2023-01-09T08:16:34.788Z,100.00
2023-01-09T08:17:38.178Z,100.00
2023-01-09T08:18:41.685Z,100.00
2023-01-09T08:19:44.026Z,100.00
2023-01-09T08:20:48.797Z,100.00
2023-01-09T08:21:52.095Z,100.00
2023-01-09T08:22:55.691Z,100.00
2023-01-09T08:23:58.959Z,100.00
2023-01-09T08:25:01.355Z,100.00
2023-01-09T08:26:05.004Z,100.00
2023-01-09T08:27:08.567Z,100.00
2023-01-09T08:28:12.799Z,100.00
2023-01-09T08:29:16.001Z,100.00
2023-01-09T08:30:19.909Z,100.00
2023-01-09T08:31:23.073Z,100.00
2023-01-09T08:32:28.011Z,100.00
2023-01-09T08:33:32.311Z,100.00
2023-01-09T08:34:37.339Z,100.00
2023-01-09T08:35:41.112Z,100.00
2023-01-09T08:36:43.345Z,100.00
2023-01-09T08:37:49.978Z,100.00
2023-01-09T08:38:54.231Z,100.00
2023-01-09T08:39:57.631Z,100.00
2023-01-09T08:41:04.556Z,100.00
2023-01-09T08:42:27.296Z,100.00
2023-01-09T08:43:50.972Z,100.00
2023-01-09T08:45:11.941Z,100.00
2023-01-09T08:46:38.346Z,100.00
2023-01-09T08:47:43.059Z,100.00
2023-01-09T08:48:46.760Z,100.00
2023-01-09T08:49:49.992Z,100.00
2023-01-09T08:50:54.938Z,100.00
2023-01-09T08:51:59.189Z,100.00
2023-01-09T08:53:02.455Z,100.00
2023-01-09T08:54:05.642Z,100.00
2023-01-09T08:55:08.853Z,100.00
2023-01-09T08:56:12.053Z,100.00
2023-01-09T08:57:17.408Z,100.00
2023-01-09T08:58:20.216Z,100.00
2023-01-09T08:59:23.912Z,100.00
2023-01-09T09:00:26.447Z,100.00
2023-01-09T09:01:29.793Z,100.00
2023-01-09T09:02:36.207Z,100.00
2023-01-09T09:03:39.705Z,100.00
2023-01-09T09:04:43.214Z,100.00
2023-01-09T09:05:46.972Z,100.00
2023-01-09T09:06:50.978Z,100.00
2023-01-09T09:07:54.564Z,100.00
2023-01-09T09:08:59.005Z,100.00
2023-01-09T09:10:03.712Z,100.00
2023-01-09T09:11:08.402Z,100.00
2023-01-09T09:12:10.985Z,100.00
2023-01-09T09:13:14.303Z,100.00
2023-01-09T09:14:25.867Z,100.00
2023-01-09T09:15:29.387Z,100.00
2023-01-09T09:16:32.302Z,100.00
2023-01-09T09:17:38.531Z,100.00
2023-01-09T09:18:41.718Z,100.00
2023-01-09T09:19:44.952Z,100.00
2023-01-09T09:20:48.439Z,100.00
2023-01-09T09:21:50.814Z,100.00
2023-01-09T09:22:54.178Z,100.00
2023-01-09T09:23:58.383Z,100.00
2023-01-09T09:25:01.953Z,100.00
2023-01-09T09:26:04.804Z,100.00
2023-01-09T09:27:07.571Z,100.00
2023-01-09T09:28:10.588Z,100.00
2023-01-09T09:29:14.360Z,100.00
2023-01-09T09:30:20.375Z,100.00
2023-01-09T09:31:25.086Z,100.00
2023-01-09T09:32:28.323Z,100.00
2023-01-09T09:33:31.647Z,100.00
2023-01-09T09:34:37.016Z,100.00
2023-01-09T09:35:41.243Z,100.00
2023-01-09T09:36:47.940Z,100.00
2023-01-09T09:37:59.664Z,100.00
2023-01-09T09:39:03.895Z,100.00
2023-01-09T09:40:17.965Z,100.00
2023-01-09T09:41:18.242Z,100.00
2023-01-09T09:42:43.330Z,100.00
2023-01-09T09:44:09.083Z,100.00
2023-01-09T09:45:15.409Z,100.00
2023-01-09T09:46:22.597Z,100.00
2023-01-09T09:47:44.547Z,100.00
2023-01-09T09:48:56.700Z,100.00
2023-01-09T09:50:01.706Z,100.00
2023-01-09T09:51:05.755Z,100.00
2023-01-09T09:52:11.938Z,100.00
2023-01-09T09:53:17.329Z,100.00
2023-01-09T09:54:21.408Z,100.00
2023-01-09T09:55:29.774Z,100.00
2023-01-09T09:56:34.048Z,100.00
2023-01-09T09:57:37.863Z,100.00
2023-01-09T09:58:41.745Z,100.00
2023-01-09T09:59:45.541Z,100.00
2023-01-09T10:00:50.348Z,100.00
2023-01-09T10:01:55.925Z,100.00
2023-01-09T10:03:08.067Z,100.00
2023-01-09T10:04:12.528Z,100.00
2023-01-09T10:05:16.684Z,100.00
2023-01-09T10:06:28.152Z,100.00
2023-01-09T10:07:40.520Z,100.00
2023-01-09T10:08:56.320Z,100.00
2023-01-09T10:10:05.584Z,100.00
2023-01-09T10:11:11.684Z,100.00
2023-01-09T10:12:32.434Z,100.00
2023-01-09T10:13:55.568Z,100.00
2023-01-09T10:15:10.050Z,100.00
2023-01-09T10:16:21.887Z,100.00
2023-01-09T10:17:32.926Z,100.00
2023-01-09T10:18:37.695Z,100.00
2023-01-09T10:19:57.024Z,100.00
2023-01-09T10:21:01.832Z,100.00
2023-01-09T10:22:15.467Z,100.00
2023-01-09T10:23:34.845Z,100.00
2023-01-09T10:24:40.819Z,100.00
2023-01-09T10:25:49.071Z,100.00
2023-01-09T10:26:56.075Z,100.00
2023-01-09T10:28:17.710Z,100.00
2023-01-09T10:29:21.925Z,100.00
2023-01-09T10:30:40.479Z,100.00
2023-01-09T10:32:02.471Z,100.00
2023-01-09T10:33:08.059Z,100.00
2023-01-09T10:34:18.672Z,100.00
2023-01-09T10:35:47.074Z,100.00
2023-01-09T10:36:53.250Z,100.00
2023-01-09T10:37:59.298Z,100.00
2023-01-09T10:39:04.154Z,100.00
2023-01-09T10:40:10.414Z,100.00
2023-01-09T10:41:21.618Z,100.00
2023-01-09T10:42:44.526Z,100.00
2023-01-09T10:43:52.648Z,100.00
2023-01-09T10:45:12.246Z,100.00
2023-01-09T10:46:23.385Z,100.00
2023-01-09T10:47:29.979Z,100.00
2023-01-09T10:48:35.988Z,100.00
2023-01-09T10:49:40.021Z,100.00
2023-01-09T10:50:46.482Z,100.00
2023-01-09T10:51:51.198Z,100.00
2023-01-09T10:52:57.117Z,100.00
2023-01-09T10:54:01.472Z,100.00
2023-01-09T10:55:07.048Z,100.00
2023-01-09T10:56:30.490Z,100.00
2023-01-09T10:57:35.780Z,100.00
2023-01-09T10:58:40.647Z,100.00
2023-01-09T10:59:44.255Z,100.00
2023-01-09T11:00:48.291Z,100.00
2023-01-09T11:01:53.193Z,100.00
2023-01-09T11:02:55.493Z,100.00
2023-01-09T11:04:00.770Z,100.00
2023-01-09T11:05:05.222Z,100.00
2023-01-09T11:06:10.924Z,100.00
2023-01-09T11:07:18.826Z,100.00
2023-01-09T11:08:40.547Z,100.00
2023-01-09T11:09:57.791Z,100.00
2023-01-09T11:11:02.659Z,100.00
2023-01-09T11:12:07.715Z,100.00
2023-01-09T11:13:21.780Z,100.00
2023-01-09T11:14:27.483Z,100.00
2023-01-09T11:15:31.400Z,100.00
2023-01-09T11:16:35.203Z,100.00
2023-01-09T11:17:38.503Z,100.00
2023-01-09T11:18:44.512Z,100.00
2023-01-09T11:20:07.270Z,100.00
2023-01-09T11:21:14.617Z,100.00
2023-01-09T11:22:18.855Z,100.00
2023-01-09T11:23:35.145Z,100.00
2023-01-09T11:24:38.485Z,100.00
2023-01-09T11:25:43.920Z,100.00
2023-01-09T11:26:48.227Z,100.00
2023-01-09T11:28:06.986Z,100.00
2023-01-09T11:29:15.065Z,100.00
2023-01-09T11:30:21.865Z,100.00
2023-01-09T11:31:28.294Z,100.00
2023-01-09T11:32:32.797Z,100.00
2023-01-09T11:33:39.349Z,100.00
2023-01-09T11:34:45.006Z,100.00
2023-01-09T11:36:00.344Z,100.00
2023-01-09T11:37:05.527Z,100.00
2023-01-09T11:38:11.015Z,100.00
2023-01-09T11:39:22.458Z,100.00
2023-01-09T11:40:25.958Z,100.00
2023-01-09T11:41:38.023Z,100.00
2023-01-09T11:42:53.880Z,100.00
2023-01-09T11:43:59.183Z,100.00
2023-01-09T11:45:02.426Z,100.00
2023-01-09T11:46:10.851Z,100.00
2023-01-09T11:47:28.453Z,100.00
2023-01-09T11:48:35.527Z,100.00
2023-01-09T11:49:38.693Z,100.00
2023-01-09T11:50:43.761Z,100.00
2023-01-09T11:51:47.627Z,100.00
2023-01-09T11:54:09.328Z,100.00
2023-01-09T11:55:14.602Z,100.00
2023-01-09T11:56:18.836Z,100.00
2023-01-09T11:57:23.488Z,100.00
2023-01-09T11:58:28.560Z,100.00
2023-01-09T11:59:32.012Z,100.00
2023-01-09T12:00:36.729Z,100.00
2023-01-09T12:01:47.431Z,100.00
2023-01-09T12:02:53.722Z,100.00
2023-01-09T12:04:10.280Z,100.00
2023-01-09T12:05:18.751Z,100.00
2023-01-09T12:06:36.379Z,100.00
2023-01-09T12:07:53.675Z,100.00
2023-01-09T12:09:07.489Z,100.00
2023-01-09T12:10:15.713Z,100.00
2023-01-09T12:11:26.924Z,100.00
2023-01-09T12:12:38.164Z,100.00
2023-01-09T12:13:55.838Z,100.00
2023-01-09T12:15:12.419Z,100.00
2023-01-09T12:16:17.986Z,100.00
2023-01-09T12:17:23.292Z,100.00
2023-01-09T12:18:29.318Z,100.00
2023-01-09T12:19:52.562Z,100.00
2023-01-09T12:20:59.931Z,100.00
2023-01-09T12:22:05.132Z,100.00
2023-01-09T12:23:29.707Z,100.00
2023-01-09T12:24:37.811Z,100.00
2023-01-09T12:25:45.254Z,100.00
2023-01-09T12:28:36.066Z,100.00
2023-01-09T12:30:00.419Z,100.00
2023-01-09T12:31:21.633Z,100.00
2023-01-09T12:32:42.661Z,100.00
2023-01-09T12:33:53.484Z,100.00
2023-01-09T12:35:05.959Z,100.00
2023-01-09T12:36:23.432Z,100.00
2023-01-09T12:37:46.610Z,100.00
2023-01-09T12:38:54.713Z,100.00
2023-01-09T12:40:04.694Z,100.00
2023-01-09T12:41:09.614Z,100.00
2023-01-09T12:42:20.788Z,100.00
2023-01-09T12:43:28.044Z,100.00
2023-01-09T12:44:35.882Z,100.00
2023-01-09T12:45:41.540Z,100.00
2023-01-09T12:46:46.194Z,100.00
2023-01-09T12:47:51.578Z,100.00
2023-01-09T12:49:13.884Z,100.00
2023-01-09T12:50:31.095Z,100.00
2023-01-09T12:51:37.715Z,100.00
2023-01-09T12:52:45.702Z,100.00
2023-01-09T12:53:54.028Z,100.00
2023-01-09T12:55:04.141Z,100.00
2023-01-09T12:56:11.272Z,100.00
2023-01-09T12:57:36.383Z,100.00
2023-01-09T12:58:47.531Z,100.00
2023-01-09T13:01:05.346Z,100.00
2023-01-09T13:02:15.962Z,100.00
2023-01-09T13:03:22.001Z,100.00
2023-01-09T13:04:27.179Z,100.00
2023-01-09T13:05:32.455Z,100.00
2023-01-09T13:06:36.588Z,100.00
2023-01-09T13:07:42.723Z,100.00
2023-01-09T13:08:51.963Z,100.00
2023-01-09T13:09:59.872Z,100.00
2023-01-09T13:11:19.469Z,100.00
2023-01-09T13:12:16.049Z,100.00
2023-01-09T13:13:21.442Z,100.00
2023-01-09T13:14:25.891Z,100.00
2023-01-09T13:16:59.325Z,100.00
2023-01-09T13:18:04.394Z,100.00
2023-01-09T13:19:14.365Z,100.00
2023-01-09T13:20:19.756Z,100.00
2023-01-09T13:21:22.211Z,100.00
2023-01-09T17:40:51.566Z,100.00
2023-01-09T17:41:55.134Z,100.00
2023-01-09T17:42:57.338Z,100.00
2023-01-09T17:44:01.646Z,100.00
2023-01-09T17:45:06.572Z,100.00
2023-01-09T17:46:11.850Z,100.00
2023-01-09T17:47:16.507Z,100.00
2023-01-09T17:48:21.669Z,100.00
2023-01-09T17:49:24.437Z,100.00
2023-01-09T17:50:31.684Z,100.00
2023-01-09T17:51:38.656Z,100.00
2023-01-09T17:52:45.426Z,100.00
2023-01-09T17:53:48.903Z,100.00
2023-01-09T17:54:53.885Z,100.00
2023-01-09T17:55:57.476Z,100.00
2023-01-09T17:57:01.396Z,100.00
2023-01-09T17:58:04.275Z,100.00
2023-01-09T17:59:08.932Z,100.00
2023-01-09T18:00:26.560Z,100.00
2023-01-09T18:01:30.807Z,100.00
2023-01-09T18:02:33.346Z,100.00
2023-01-09T18:03:37.062Z,99.21
2023-01-09T18:04:40.556Z,99.69
2023-01-09T18:05:43.736Z,100.00
2023-01-09T18:06:49.039Z,100.00
2023-01-09T18:07:52.532Z,99.86
2023-01-09T18:08:57.298Z,99.49
2023-01-09T18:09:59.961Z,98.63
2023-01-09T18:11:04.787Z,98.30
2023-01-09T18:12:08.228Z,98.64
2023-01-09T18:13:12.900Z,98.99
2023-01-09T18:14:17.493Z,99.09
2023-01-09T18:15:21.461Z,97.60
2023-01-09T18:16:26.910Z,97.61
2023-01-09T18:17:32.266Z,97.70
2023-01-09T18:18:36.329Z,98.32
2023-01-09T18:19:40.070Z,97.91
2023-01-09T18:20:44.102Z,96.50
2023-01-09T18:21:47.593Z,96.80
2023-01-09T18:22:50.898Z,96.49
2023-01-09T18:23:54.508Z,96.47
2023-01-09T18:24:57.805Z,96.66
2023-01-09T18:26:01.925Z,95.98
2023-01-09T18:27:05.232Z,95.97
2023-01-09T18:28:08.621Z,95.84
2023-01-09T18:29:13.391Z,96.35
2023-01-09T18:30:16.789Z,96.43
2023-01-09T18:31:21.593Z,95.55
2023-01-09T18:32:26.122Z,95.22
2023-01-09T18:33:28.757Z,95.15
2023-01-09T18:34:31.217Z,95.46
2023-01-09T18:35:35.563Z,94.83
2023-01-09T18:36:37.943Z,94.82
2023-01-09T18:37:41.540Z,93.86
2023-01-09T18:38:44.936Z,93.69
2023-01-09T18:39:51.502Z,93.05
2023-01-09T18:40:57.475Z,92.69
2023-01-09T18:42:01.810Z,92.10
2023-01-09T18:43:09.788Z,92.30
2023-01-09T18:44:16.135Z,92.08
2023-01-09T18:45:21.557Z,91.51
2023-01-09T18:46:25.727Z,91.32
2023-01-09T18:47:29.373Z,90.49
2023-01-09T18:48:33.297Z,91.33
2023-01-09T18:49:35.967Z,90.92
2023-01-09T18:50:42.491Z,91.19
2023-01-09T18:51:48.173Z,92.00
2023-01-09T18:52:52.438Z,91.47
2023-01-09T18:53:55.936Z,90.71
2023-01-09T18:54:59.444Z,91.05
2023-01-09T18:56:03.472Z,90.84
2023-01-09T18:57:05.939Z,89.97
2023-01-09T18:58:09.122Z,89.97
2023-01-09T18:59:12.737Z,90.00
2023-01-09T19:00:16.289Z,89.68
2023-01-09T19:01:19.063Z,89.56
2023-01-09T19:02:24.044Z,89.15
2023-01-09T19:03:27.996Z,89.30
2023-01-09T19:04:32.158Z,90.14
2023-01-09T19:05:35.643Z,90.51
2023-01-09T19:06:39.883Z,88.90
2023-01-09T19:07:43.268Z,88.98
2023-01-09T19:08:45.852Z,88.58
2023-01-09T19:09:49.145Z,87.67
2023-01-09T19:10:53.374Z,87.05
2023-01-09T19:11:56.673Z,87.31
2023-01-09T19:13:02.031Z,87.85
2023-01-09T19:14:05.388Z,86.24
2023-01-09T19:15:12.983Z,86.01
2023-01-09T19:16:17.917Z,85.71
2023-01-09T19:17:23.494Z,85.94
2023-01-09T19:18:26.787Z,85.47
2023-01-09T19:19:32.283Z,85.20
2023-01-09T19:20:36.612Z,84.74
2023-01-09T19:21:39.169Z,84.93
2023-01-09T19:22:44.060Z,84.67
2023-01-09T19:23:48.281Z,84.20
2023-01-09T19:24:53.035Z,84.79
2023-01-09T19:25:58.083Z,84.99
2023-01-09T19:27:01.514Z,85.34
2023-01-09T19:28:04.175Z,84.10
2023-01-09T19:29:07.301Z,84.56
2023-01-09T19:30:10.777Z,83.64
2023-01-09T19:31:14.943Z,83.38
2023-01-09T19:32:18.561Z,82.71
2023-01-09T19:33:21.865Z,82.55
2023-01-09T19:34:25.969Z,82.97
2023-01-09T19:35:28.404Z,83.26
2023-01-09T19:36:34.305Z,83.57
2023-01-09T19:37:36.877Z,84.03
2023-01-09T19:38:39.952Z,82.87
2023-01-09T19:39:43.365Z,83.65
2023-01-09T19:40:46.827Z,83.10
2023-01-09T19:41:50.496Z,84.64
2023-01-09T19:42:55.440Z,83.23
2023-01-09T19:44:02.510Z,83.88
2023-01-09T19:45:06.806Z,83.59
2023-01-09T19:46:13.474Z,83.86
2023-01-09T19:47:16.806Z,82.70
2023-01-09T19:48:20.299Z,82.70
2023-01-09T19:49:23.827Z,82.15
2023-01-09T19:50:28.932Z,81.74
2023-01-09T19:51:33.967Z,81.69
2023-01-09T19:52:38.167Z,81.14
2023-01-09T19:53:41.153Z,81.16
2023-01-09T19:54:44.361Z,82.08
2023-01-09T19:55:47.639Z,80.00
2023-01-09T19:56:52.063Z,80.44
2023-01-09T19:57:57.363Z,81.51
2023-01-09T19:59:01.721Z,82.07
2023-01-09T20:00:06.468Z,81.20
2023-01-09T20:01:16.557Z,81.28
2023-01-09T20:03:25.430Z,80.57
2023-01-09T20:04:31.344Z,78.86
2023-01-09T20:05:34.118Z,79.95
2023-01-09T20:06:42.134Z,79.55
2023-01-09T20:07:45.411Z,79.62
2023-01-09T20:08:48.714Z,79.31
2023-01-09T20:09:51.054Z,79.13
2023-01-09T20:10:54.464Z,79.26
2023-01-09T20:11:58.180Z,77.33
2023-01-09T20:13:03.667Z,78.59
2023-01-09T20:14:12.395Z,77.49
2023-01-09T20:15:15.896Z,77.84
2023-01-09T20:16:20.252Z,77.98
2023-01-09T20:17:22.926Z,77.38
2023-01-09T20:18:26.624Z,76.55
2023-01-09T20:19:30.457Z,77.55
2023-01-09T20:20:34.052Z,77.45
2023-01-09T20:21:41.893Z,77.03
2023-01-09T20:22:45.555Z,76.71
2023-01-09T20:23:48.327Z,77.27
2023-01-09T20:24:51.624Z,76.96
2023-01-09T20:25:56.937Z,75.97
2023-01-09T20:27:01.248Z,75.70
2023-01-09T20:28:07.845Z,76.89
2023-01-09T20:29:11.177Z,76.49
2023-01-09T20:30:14.248Z,76.63
2023-01-09T20:31:19.404Z,76.70
2023-01-09T20:32:21.902Z,76.72
2023-01-09T20:33:25.250Z,76.18
2023-01-09T20:34:29.851Z,75.13
2023-01-09T20:35:33.364Z,76.01
2023-01-09T20:36:36.754Z,75.96
2023-01-09T20:37:40.500Z,75.21
2023-01-09T20:38:44.302Z,74.13
2023-01-09T20:39:47.680Z,74.36
2023-01-09T20:40:50.256Z,74.28
2023-01-09T20:41:55.472Z,73.74
2023-01-09T20:42:59.496Z,73.03
2023-01-09T20:44:04.426Z,74.57
2023-01-09T20:45:08.458Z,72.69
2023-01-09T20:46:11.985Z,73.38
2023-01-09T20:47:14.939Z,72.58
2023-01-09T20:48:17.360Z,73.50
2023-01-09T20:49:21.113Z,73.64
2023-01-09T20:50:24.513Z,73.67
2023-01-09T20:51:28.025Z,72.46
2023-01-09T20:52:31.629Z,72.71
2023-01-09T20:53:37.133Z,72.39
2023-01-09T20:54:43.144Z,73.29
2023-01-09T20:55:47.352Z,72.86
2023-01-09T20:56:50.986Z,72.00
2023-01-09T20:57:57.423Z,72.69
2023-01-09T20:59:01.348Z,72.37
2023-01-09T21:00:05.457Z,72.17
2023-01-09T21:01:10.265Z,71.45
2023-01-09T21:02:15.114Z,73.10
2023-01-09T21:03:17.560Z,72.96
2023-01-09T21:04:20.152Z,72.64
2023-01-09T21:05:23.611Z,72.94
2023-01-09T21:06:28.311Z,73.59
2023-01-09T21:07:31.654Z,71.85
2023-01-09T21:08:35.300Z,72.92
2023-01-09T21:09:38.497Z,71.40
2023-01-09T21:10:41.753Z,70.98
2023-01-09T21:11:49.976Z,71.48
2023-01-09T21:12:53.372Z,71.75
2023-01-09T21:14:02.593Z,71.80
2023-01-09T21:15:11.452Z,71.29
2023-01-09T21:16:16.330Z,70.53
2023-01-09T21:17:19.612Z,71.62
2023-01-09T21:18:22.581Z,72.42
2023-01-09T21:19:25.992Z,72.53
2023-01-09T21:20:32.305Z,72.12
2023-01-09T21:21:36.584Z,71.97
2023-01-09T21:22:42.776Z,72.58
2023-01-09T21:23:48.077Z,73.42
2023-01-09T21:24:50.933Z,73.45
2023-01-09T21:25:57.352Z,71.79
2023-01-09T21:27:00.873Z,71.97
2023-01-09T21:28:03.850Z,73.84
2023-01-09T21:29:10.036Z,72.56
2023-01-09T21:30:15.007Z,71.33
2023-01-09T21:31:20.848Z,71.45
2023-01-09T21:32:24.344Z,71.93
2023-01-09T21:33:27.221Z,70.15
2023-01-09T21:34:30.440Z,71.56
2023-01-09T21:35:35.178Z,71.21
2023-01-09T21:36:39.392Z,71.02
2023-01-09T21:37:45.515Z,72.48
2023-01-09T21:38:49.856Z,72.54
2023-01-09T21:39:53.012Z,71.29
2023-01-09T21:40:56.093Z,71.39
2023-01-09T21:42:17.396Z,71.48
2023-01-09T21:43:48.176Z,71.62
2023-01-09T21:45:10.995Z,72.82
2023-01-09T21:46:33.511Z,73.12
2023-01-09T21:47:37.020Z,71.64
2023-01-09T21:48:40.183Z,72.42
2023-01-09T21:49:43.692Z,72.96
2023-01-09T21:50:47.123Z,71.50
2023-01-09T21:51:50.222Z,71.34
2023-01-09T21:52:52.550Z,72.05
2023-01-09T21:53:56.902Z,72.12
2023-01-09T21:55:00.965Z,71.69
2023-01-09T21:56:04.324Z,72.43
2023-01-09T21:57:08.047Z,72.75
2023-01-09T21:58:11.444Z,72.46
2023-01-09T21:59:15.392Z,74.23
2023-01-09T22:00:19.394Z,72.66
2023-01-09T22:01:21.787Z,72.49
2023-01-09T22:02:25.255Z,73.24
2023-01-09T22:03:28.231Z,73.53
2023-01-09T22:04:30.721Z,73.66
2023-01-09T22:05:35.867Z,73.41
2023-01-09T22:06:39.172Z,73.60
2023-01-09T22:07:42.783Z,73.74
2023-01-09T22:08:45.960Z,74.92
2023-01-09T22:09:49.267Z,73.75
2023-01-09T22:10:56.347Z,75.32
